Date,TemperatureHighF,TemperatureAvgF,TemperatureLowF,DewpointHighF,DewpointAvgF,DewpointLowF,HumidityHigh,HumidityAvg,HumidityLow,PressureMaxIn,PressureMinIn,WindSpeedMaxMPH,WindSpeedAvgMPH,GustSpeedMaxMPH,PrecipitationSumIn
2012-1-1,48,29,14,12,7,3,73,45,16,0.00,40.00,5,3,9,0.00
2012-1-2,52,32,18,16,12,9,73,49,18,0.00,40.00,4,2,9,0.00
2012-1-3,50,31,18,19,16,12,78,56,27,0.00,40.00,7,3,13,0.00
2012-1-4,50,32,16,20,17,13,86,58,24,0.00,40.00,5,3,9,0.00
2012-1-5,49,31,17,19,16,13,84,60,27,0.00,40.00,6,3,12,0.00
2012-1-6,47,29,16,21,17,12,86,63,33,0.00,40.00,7,3,11,0.00
2012-1-7,48,33,19,22,17,14,83,56,29,0.00,40.00,11,4,17,0.00
2012-1-8,43,30,19,22,18,15,85,64,39,0.00,40.00,8,4,13,0.00
2012-1-9,40,25,13,20,14,9,85,65,34,0.00,40.00,8,3,14,0.00
2012-1-10,43,27,13,19,14,9,84,62,36,0.00,40.00,7,3,12,0.00
2012-1-11,43,27,15,19,8,-1,85,52,16,0.00,40.00,15,6,27,0.00
2012-1-12,37,21,9,5,-2,-12,67,42,13,0.00,40.00,7,3,14,0.00
2012-1-13,41,21,5,3,-2,-4,66,41,17,0.00,40.00,10,4,18,0.00
2012-1-14,47,24,8,6,2,-2,67,42,15,0.00,40.00,6,2,9,0.00
2012-1-15,47,30,14,22,7,3,65,41,17,0.00,40.00,6,3,12,0.00
2012-1-16,38,33,24,33,28,20,96,83,59,0.00,40.00,11,5,26,0.40
2012-1-17,37,25,10,22,15,5,89,70,34,0.00,40.00,10,4,23,0.02
2012-1-18,44,25,9,17,12,4,81,60,33,0.00,40.00,6,3,14,0.01
2012-1-19,50,32,15,23,18,11,84,61,31,0.00,40.00,7,3,11,0.00
2012-1-20,50,34,21,25,20,17,85,59,28,0.00,40.00,12,5,20,0.00
2012-1-21,39,32,24,33,22,17,93,70,46,0.00,40.00,22,6,39,0.08
2012-1-22,37,30,16,28,19,10,94,67,42,0.00,40.00,16,11,29,0.12
2012-1-23,39,26,13,28,15,9,95,69,33,0.00,40.00,6,4,14,0.01
2012-1-24,40,31,22,35,28,20,96,89,69,0.00,40.00,7,3,11,0.25
2012-1-25,38,28,20,27,24,18,96,85,62,0.00,40.00,8,2,13,0.11
2012-1-26,44,30,18,28,23,16,92,76,48,0.00,40.00,5,2,11,0.00
2012-1-27,45,34,21,27,21,11,86,62,29,0.00,40.00,13,6,25,0.00
2012-1-28,40,26,12,17,14,8,86,63,37,0.00,40.00,7,3,12,0.00
2012-1-29,44,27,13,18,13,8,85,60,29,0.00,40.00,5,3,11,0.00
2012-1-30,51,32,16,18,15,11,85,55,20,0.00,40.00,8,3,14,0.00
2012-1-31,44,31,19,20,16,13,80,56,30,0.00,40.00,7,3,16,0.00
2012-2-1,44,31,17,22,17,13,89,60,32,0.00,40.00,6,3,11,0.00
2012-2-2,42,34,29,34,25,13,95,74,38,0.00,40.00,7,3,18,0.18
2012-2-3,45,33,27,30,26,22,96,80,42,0.00,40.00,7,2,11,0.39
2012-2-4,43,32,24,25,19,13,91,63,29,0.00,40.00,7,4,20,0.20
2012-2-5,37,30,26,25,24,20,91,78,62,0.00,40.00,9,6,14,0.03
2012-2-6,38,30,18,27,22,15,94,75,47,0.00,40.00,6,3,16,0.10
2012-2-7,42,26,11,19,14,7,89,64,33,0.00,40.00,5,3,11,0.10
2012-2-8,47,33,19,30,18,13,76,55,30,0.00,40.00,7,4,13,0.00
2012-2-9,47,36,26,32,24,10,93,63,34,0.00,40.00,11,6,20,0.02
2012-2-10,47,32,16,24,18,11,82,58,36,0.00,40.00,9,4,19,0.00
2012-2-11,53,36,20,25,22,16,85,60,32,0.00,40.00,7,4,14,0.00
2012-2-12,37,32,28,31,27,22,97,82,55,0.00,40.00,5,2,13,0.24
2012-2-13,40,33,30,30,29,25,97,86,58,0.00,40.00,10,5,16,0.38
2012-2-14,42,32,25,30,27,21,95,83,47,0.00,40.00,10,4,20,0.01
2012-2-15,39,28,19,28,22,17,95,78,49,0.00,40.00,7,3,12,0.25
2012-2-16,48,33,22,22,19,16,80,60,32,0.00,40.00,9,4,15,0.04
2012-2-17,46,32,18,21,17,9,84,58,26,0.00,40.00,9,4,14,0.00
2012-2-18,46,29,15,20,15,11,87,60,25,0.00,40.00,7,3,11,0.00
2012-2-19,39,30,22,29,20,15,94,70,45,0.00,40.00,14,6,30,0.00
2012-2-20,35,24,15,22,11,5,90,59,28,0.00,40.00,12,8,23,0.06
2012-2-21,45,28,11,18,13,7,83,57,31,0.00,40.00,14,5,24,0.01
2012-2-22,52,36,20,28,22,16,84,56,39,0.00,40.00,15,6,25,0.00
2012-2-23,47,37,26,25,14,-1,64,40,17,0.00,40.00,18,8,34,0.00
2012-2-24,46,28,12,12,6,2,74,43,19,0.00,40.00,5,3,12,0.00
2012-2-25,54,36,18,14,9,1,73,39,16,0.00,40.00,11,5,24,0.00
2012-2-26,46,34,20,13,1,-7,63,28,11,0.00,40.00,11,5,21,0.00
2012-2-27,53,40,24,27,14,5,52,35,23,0.00,40.00,9,6,22,0.00
2012-2-28,45,32,27,33,26,19,97,77,42,0.00,40.00,17,7,28,0.26
2012-2-29,44,31,15,23,18,12,90,63,30,0.00,40.00,5,4,12,0.01
2012-3-1,40,28,18,28,19,8,90,71,40,0.00,40.00,15,6,37,0.01
2012-3-2,36,24,17,23,13,3,90,66,35,0.00,40.00,15,6,29,0.37
2012-3-3,38,23,6,18,9,0,80,57,37,0.00,40.00,8,4,13,0.20
2012-3-4,50,31,16,26,19,12,89,64,35,0.00,40.00,5,3,10,0.00
2012-3-5,56,38,22,25,20,11,90,56,18,0.00,40.00,8,3,15,0.00
2012-3-6,57,42,28,21,16,8,72,40,16,0.00,40.00,17,5,26,0.00
2012-3-7,48,40,30,22,14,6,67,37,22,0.00,40.00,18,9,31,0.00
2012-3-8,47,35,26,32,28,20,94,76,48,0.00,40.00,7,4,19,0.03
2012-3-9,51,37,25,29,22,16,94,61,25,0.00,40.00,6,3,14,0.03
2012-3-10,49,37,27,30,26,-100,89,68,45,0.00,40.00,13,5,20,0.00
2012-3-11,57,42,27,29,20,8,92,51,15,0.00,40.00,15,6,27,0.00
2012-3-12,55,39,22,20,15,8,79,43,15,0.00,40.00,8,3,14,0.00
2012-3-13,63,42,25,21,11,-3,74,39,7,0.00,40.00,10,4,19,0.02
2012-3-14,64,41,22,16,6,-7,66,33,6,0.00,40.00,8,3,20,0.02
2012-3-15,66,44,24,14,9,3,59,29,8,0.00,40.00,8,4,16,0.00
2012-3-16,68,46,27,19,10,-10,62,30,4,0.00,40.00,10,4,20,0.00
2012-3-17,63,48,29,16,10,0,53,26,8,0.00,40.00,13,6,27,0.00
2012-3-18,54,39,22,31,21,12,96,55,23,0.00,40.00,21,7,40,0.02
2012-3-19,32,25,20,24,21,17,92,83,70,0.00,40.00,8,1,15,0.19
2012-3-20,48,33,11,20,11,-100,88,49,16,0.00,40.00,10,4,24,0.02
2012-3-21,60,37,18,23,15,8,77,45,22,0.00,40.00,8,4,17,0.02
2012-3-22,65,44,24,25,20,-100,85,47,19,0.00,40.00,12,-4,20,0.00
2012-3-23,70,48,28,24,18,10,71,36,10,0.00,40.00,7,4,16,0.00
2012-3-24,70,50,29,23,18,13,65,33,11,0.00,40.00,6,4,16,0.00
2012-3-25,71,55,37,27,20,15,52,30,12,0.00,40.00,8,4,16,0.00
2012-3-26,65,52,39,26,18,8,52,29,11,0.00,40.00,20,7,31,0.00
2012-3-27,67,47,26,20,15,9,67,33,11,0.00,40.00,11,4,19,0.00
2012-3-28,68,47,26,19,11,-2,65,31,6,0.00,40.00,8,4,16,0.00
2012-3-29,68,49,30,18,14,8,55,29,12,0.00,40.00,11,4,21,0.00
2012-3-30,69,50,29,22,17,6,60,31,9,0.00,40.00,12,4,24,0.01
2012-3-31,74,54,35,25,20,14,57,31,10,0.00,40.00,9,4,19,0.00
2012-4-1,69,50,30,23,16,7,62,30,9,0.00,40.00,21,8,40,0.00
2012-4-2,46,34,24,33,21,11,96,62,29,0.00,40.00,8,3,16,0.00
2012-4-3,50,38,32,37,33,29,97,87,46,0.00,40.00,7,3,16,0.00
2012-4-4,65,46,29,37,28,17,97,62,17,0.00,40.00,12,4,24,0.00
2012-4-5,62,48,29,26,21,14,72,40,16,0.00,40.00,7,4,15,0.00
2012-4-6,63,51,35,20,7,-5,44,19,6,0.00,40.00,15,7,31,0.00
2012-4-7,64,42,19,7,-1,-14,48,21,5,0.00,40.00,7,4,15,0.00
2012-4-8,71,51,28,18,10,1,39,21,9,0.00,40.00,10,3,19,0.00
2012-4-9,74,58,40,27,19,10,42,25,9,0.00,40.00,12,6,20,0.00
2012-4-10,75,59,41,32,24,15,56,31,11,0.00,40.00,9,5,25,0.00
2012-4-11,75,59,46,36,26,10,53,33,9,0.00,40.00,19,10,35,0.00
2012-4-12,56,45,36,27,20,0,62,39,12,0.00,40.00,14,6,26,0.00
2012-4-13,52,42,27,19,9,0,39,26,18,0.00,40.00,9,4,18,0.00
2012-4-14,47,38,28,29,17,-100,92,52,18,0.00,40.00,18,7,31,0.00
2012-4-15,57,38,28,31,25,18,91,66,23,0.00,40.00,16,9,29,0.00
2012-4-16,58,42,23,28,20,15,85,49,20,0.00,40.00,9,5,26,0.00
2012-4-17,66,48,26,22,15,9,68,33,11,0.00,40.00,11,4,23,0.00
2012-4-18,70,52,31,21,17,14,54,29,13,0.00,40.00,10,5,24,0.00
2012-4-19,66,54,42,35,25,17,48,33,21,0.00,40.00,17,7,32,0.00
2012-4-20,71,55,35,28,24,22,63,33,16,0.00,40.00,13,6,24,0.00
2012-4-21,78,58,35,27,19,12,57,27,9,0.00,40.00,10,5,19,0.00
2012-4-22,80,61,36,22,13,3,43,20,5,0.00,40.00,9,4,19,0.00
2012-4-23,81,64,44,32,22,14,45,23,8,0.00,40.00,11,5,21,0.00
2012-4-24,82,63,42,28,20,4,48,23,6,0.00,40.00,13,6,25,0.00
2012-4-25,76,59,40,34,23,13,44,26,13,0.00,40.00,15,6,32,0.00
2012-4-26,75,57,38,39,32,19,94,45,13,0.00,40.00,18,7,39,0.00
2012-4-27,64,50,38,41,34,21,96,62,23,0.00,40.00,12,6,24,0.00
2012-4-28,63,50,34,30,21,-100,71,37,18,0.00,40.00,15,6,33,0.00
2012-4-29,68,52,33,25,16,0,67,32,8,0.00,40.00,12,6,29,0.00
2012-4-30,71,53,29,20,12,4,57,25,7,0.00,40.00,14,6,28,0.00
2012-5-1,71,55,33,25,20,13,53,28,15,0.00,40.00,12,5,22,0.00
2012-5-2,71,56,36,28,22,18,56,30,15,0.00,40.00,10,4,22,0.00
2012-5-3,76,60,36,26,20,12,56,26,9,0.00,40.00,12,5,25,0.00
2012-5-4,77,61,37,26,17,8,49,22,7,0.00,40.00,12,5,20,0.00
2012-5-5,75,60,37,20,12,-100,41,18,7,0.00,40.00,11,5,22,0.00
2012-5-6,73,58,35,19,14,7,40,20,8,0.00,40.00,11,5,23,0.00
2012-5-7,64,49,37,39,29,11,79,49,15,0.00,40.00,13,7,25,0.00
2012-5-8,70,52,34,36,30,19,90,50,16,0.00,40.00,11,4,18,0.00
2012-5-9,72,56,36,34,29,22,77,41,15,0.00,40.00,8,4,19,0.00
2012-5-10,78,61,41,34,27,17,63,32,12,0.00,40.00,11,5,23,0.00
2012-5-11,80,61,42,35,24,-100,54,28,6,0.00,40.00,22,-3,33,0.00
2012-5-12,75,59,46,41,33,-100,76,43,14,0.00,40.00,18,9,33,0.00
2012-5-13,69,55,47,39,34,19,70,48,15,0.00,40.00,19,10,35,0.04
2012-5-14,75,62,41,37,29,23,83,36,14,0.00,40.00,9,5,25,0.02
2012-5-15,81,72,49,36,24,14,58,20,9,0.00,40.00,14,8,24,0.00
2012-5-16,79,71,52,26,18,12,27,15,8,0.00,40.00,15,11,44,0.00
2012-5-17,83,69,50,33,20,8,46,20,6,0.00,40.00,14,7,25,0.00
2012-5-18,79,72,58,18,9,-2,18,10,4,0.00,40.00,16,12,37,0.00
2012-5-19,72,63,50,29,20,-100,38,21,10,0.00,40.00,12,7,26,0.00
2012-5-20,79,67,46,22,12,6,32,13,6,0.00,40.00,10,6,18,0.00
2012-5-21,86,77,54,38,23,8,41,15,8,0.00,40.00,8,6,19,0.00
2012-5-22,86,76,55,28,12,-6,31,11,3,0.00,40.00,13,8,29,0.00
2012-5-23,85,74,61,18,12,4,13,9,6,0.00,40.00,18,12,36,0.00
2012-5-26,83,68,52,23,13,-6,24,13,5,0.00,40.00,22,14,45,0.00
2012-5-27,65,57,42,13,2,-8,18,11,8,0.00,40.00,11,8,28,0.00
2012-5-28,73,60,38,13,4,-3,31,13,5,0.00,40.00,11,6,20,0.00
2012-5-29,83,68,43,7,1,-8,21,8,3,0.00,40.00,9,6,19,0.00
2012-5-30,83,73,50,13,2,-6,13,7,3,0.00,40.00,12,7,30,0.00
2012-5-31,91,76,58,21,12,6,17,9,5,0.00,40.00,9,6,17,0.03
2012-6-1,89,78,58,25,21,18,23,12,8,0.00,40.00,14,8,26,0.03
2012-6-2,89,78,59,24,17,-100,24,11,6,0.00,40.00,12,8,25,0.01
2012-6-3,90,77,56,30,19,5,31,13,4,0.00,40.00,14,6,31,0.01
2012-6-4,86,72,61,38,30,20,40,23,9,0.00,40.00,19,8,40,0.01
2012-6-5,87,70,58,39,26,2,47,25,4,0.00,40.00,14,9,27,1.68
2012-6-6,86,76,58,22,13,-4,21,10,3,0.00,40.00,8,6,30,0.23
2012-6-7,86,79,59,12,8,1,13,7,5,0.00,40.00,10,6,21,1.85
2012-6-8,90,81,58,18,8,3,17,7,4,0.00,40.00,11,6,23,1.04
2012-6-9,88,71,42,16,12,7,26,12,5,0.00,40.00,10,6,23,0.00
2012-6-10,80,70,50,22,14,7,24,12,7,0.00,40.00,13,7,25,0.00
2012-6-11,85,71,36,16,7,0,30,10,4,0.00,40.00,9,5,21,0.00
2012-6-12,89,76,43,28,11,5,23,10,5,0.00,40.00,10,5,23,0.00
2012-6-13,91,68,40,17,6,-11,30,12,2,0.00,40.00,8,4,19,0.00
2012-6-14,90,77,41,11,4,-10,20,7,2,0.00,40.00,11,5,20,0.00
2012-6-15,90,78,41,21,13,6,25,10,5,0.00,40.00,11,6,24,0.00
2012-6-16,90,71,48,27,18,-100,32,16,6,0.00,40.00,9,4,19,0.00
2012-6-17,92,74,51,41,21,0,47,19,3,0.00,40.00,15,6,27,0.01
2012-6-18,91,74,46,19,7,-9,23,9,2,0.00,40.00,12,7,25,0.01
2012-6-19,91,75,44,17,8,-2,23,9,3,0.00,40.00,11,6,21,0.00
2012-6-20,93,83,46,21,6,-2,23,6,3,0.00,40.00,12,8,25,0.00
2012-6-21,96,80,45,41,21,3,26,13,5,0.00,40.00,10,5,19,0.00
2012-6-22,97,80,53,41,27,3,47,19,3,0.00,40.00,13,5,23,0.01
2012-6-23,97,80,52,35,23,16,28,14,6,0.00,40.00,14,5,26,0.01
2012-6-24,98,81,57,35,29,21,40,18,7,0.00,40.00,7,4,20,0.00
2012-6-25,96,84,62,37,26,20,25,13,8,0.00,40.00,9,5,23,0.01
2012-6-26,95,79,57,53,36,30,57,24,10,0.00,40.00,9,5,25,0.01
2012-6-27,92,76,59,54,46,33,75,39,13,0.00,40.00,15,5,36,0.00
2012-6-28,93,77,57,49,42,33,70,34,13,0.00,40.00,12,4,25,0.00
2012-6-29,95,80,57,45,34,21,56,24,7,0.00,40.00,10,5,21,0.00
2012-6-30,97,81,56,36,25,9,37,16,4,0.00,40.00,10,4,20,0.00
2012-7-1,99,79,55,36,28,23,34,18,7,0.00,40.00,13,5,27,0.00
2012-7-2,98,79,61,46,38,30,41,25,10,0.00,40.00,12,4,32,0.00
2012-7-3,93,76,61,52,43,34,52,35,13,0.00,40.00,10,4,25,0.00
2012-7-4,91,76,59,60,48,39,90,43,17,0.00,40.00,9,4,22,0.00
2012-7-5,84,70,59,61,57,49,97,68,33,0.00,40.00,13,5,24,0.00
2012-7-6,83,68,55,59,53,42,98,65,24,0.00,40.00,11,4,25,0.00
2012-7-7,82,69,60,58,54,48,91,61,31,0.00,40.00,13,5,23,0.02
2012-7-8,85,69,59,60,54,45,94,66,25,0.00,40.00,8,3,19,0.01
2012-7-9,86,68,60,60,56,50,94,72,29,0.00,40.00,8,4,27,0.30
2012-7-10,85,68,54,58,54,43,97,66,28,0.00,40.00,11,3,21,0.03
2012-7-11,89,71,54,57,52,45,94,56,22,0.00,40.00,11,3,20,0.02
2012-7-12,91,74,56,53,47,38,88,44,18,0.00,40.00,7,3,14,0.08
2012-7-13,89,74,59,59,48,41,72,43,19,0.00,40.00,7,4,17,0.01
2012-7-14,89,71,58,56,51,45,82,52,22,0.00,40.00,12,3,31,0.01
2012-7-15,83,70,56,54,50,40,89,55,23,0.00,40.00,11,4,22,0.01
2012-7-16,85,72,62,54,48,35,73,47,18,0.00,40.00,9,4,20,0.00
2012-7-17,88,72,52,47,42,36,79,40,16,0.00,40.00,9,4,19,0.00
2012-7-18,94,75,54,44,40,31,66,34,11,0.00,40.00,9,4,26,0.00
2012-7-19,92,77,57,49,45,40,67,35,17,0.00,40.00,8,4,24,0.00
2012-7-20,94,78,58,50,44,33,71,35,13,0.00,40.00,8,4,16,0.00
2012-7-21,94,75,63,57,47,37,70,41,15,0.00,40.00,15,4,31,0.02
2012-7-22,90,74,61,56,48,38,80,46,16,0.00,40.00,10,3,22,0.01
2012-7-23,93,74,56,56,47,40,78,44,16,0.00,40.00,14,5,24,0.01
2012-7-24,85,70,55,59,52,46,90,58,26,0.00,40.00,9,4,18,0.01
2012-7-25,90,74,54,57,49,35,94,50,16,0.00,40.00,13,5,22,0.01
2012-7-26,91,75,57,50,46,40,65,37,19,0.00,40.00,8,4,21,0.00
2012-7-27,85,72,58,54,50,46,68,46,29,0.00,40.00,8,3,15,0.01
2012-7-28,91,76,58,53,47,39,73,41,17,0.00,40.00,9,4,19,0.01
2012-7-29,89,77,61,55,49,42,70,41,20,0.00,40.00,7,4,16,0.00
2012-7-30,92,75,56,57,49,36,95,49,15,0.00,40.00,8,4,32,0.01
2012-7-31,95,75,58,47,42,38,61,34,14,0.00,40.00,10,4,26,0.00
2012-8-1,87,72,54,52,47,43,82,46,22,0.00,40.00,7,3,17,0.00
2012-8-2,88,80,63,49,44,42,48,29,21,0.00,40.00,10,6,21,0.00
2012-8-3,89,72,57,49,44,33,62,40,16,0.00,40.00,13,4,25,0.00
2012-8-4,92,70,54,49,43,25,76,45,9,0.00,40.00,10,4,22,0.00
2012-8-5,88,73,56,57,47,40,70,42,23,0.00,40.00,10,4,30,0.02
2012-8-6,90,74,63,54,50,42,72,47,20,0.00,40.00,8,4,32,0.05
2012-8-7,95,74,54,52,47,40,77,44,15,0.00,40.00,8,4,25,0.03
2012-8-8,94,75,56,52,44,37,81,40,14,0.00,40.00,8,4,20,0.01
2012-8-9,95,74,54,52,42,34,66,37,12,0.00,40.00,9,4,30,0.01
2012-8-10,94,76,57,52,44,32,83,40,12,0.00,40.00,10,4,18,0.02
2012-8-11,96,79,58,50,38,-100,64,28,9,0.00,40.00,8,4,23,0.01
2012-8-12,95,76,57,44,39,32,52,29,11,0.00,40.00,9,4,19,0.00
2012-8-13,92,76,60,47,44,37,61,36,15,0.00,40.00,12,5,22,0.00
2012-8-14,89,74,55,50,43,35,70,37,15,0.00,40.00,9,4,24,0.00
2012-8-15,92,73,55,42,36,20,58,31,8,0.00,40.00,7,4,21,0.00
2012-8-16,93,77,58,48,36,28,48,26,10,0.00,40.00,11,3,24,0.00
2012-8-17,89,73,58,49,46,38,63,40,21,0.00,40.00,8,4,23,0.03
2012-8-18,91,70,53,47,43,34,69,43,15,0.00,40.00,12,4,25,0.01
2012-8-19,92,74,53,47,40,32,62,35,12,0.00,40.00,7,4,16,0.00
2012-8-20,87,74,61,51,44,32,52,35,21,0.00,40.00,9,4,23,0.00
2012-8-21,92,74,59,51,40,23,68,35,9,0.00,40.00,8,4,22,0.00
2012-8-22,81,72,63,55,49,37,73,46,25,0.00,40.00,8,4,17,0.00
2012-8-23,75,66,55,60,56,50,97,73,49,0.00,40.00,10,4,21,0.01
2012-8-24,77,64,50,56,52,49,96,70,40,0.00,40.00,10,3,18,0.04
2012-8-25,90,69,48,52,42,31,92,48,12,0.00,40.00,7,4,30,0.04
2012-8-26,91,75,55,44,40,33,56,31,13,0.00,40.00,11,4,21,0.01
2012-8-27,91,77,65,53,44,35,62,35,14,0.00,40.00,7,4,21,0.02
2012-8-28,91,75,54,50,40,24,71,34,9,0.00,40.00,7,3,21,0.01
2012-8-29,94,77,55,41,36,29,51,26,10,0.00,40.00,9,4,26,0.14
2012-8-30,92,77,58,44,36,28,47,25,10,0.00,40.00,9,5,21,0.04
2012-8-31,91,74,53,38,32,26,50,25,10,0.00,40.00,14,4,26,0.00
2012-9-1,89,73,53,49,37,30,47,29,16,0.00,40.00,12,5,29,0.03
2012-9-2,89,73,57,48,44,40,63,38,19,0.00,40.00,9,4,18,0.03
2012-9-3,89,76,59,48,40,28,62,31,11,0.00,40.00,8,4,21,0.01
2012-9-4,90,73,51,38,34,29,53,28,12,0.00,40.00,9,5,20,0.01
2012-9-5,91,76,55,34,25,15,35,17,6,0.00,40.00,8,5,18,0.01
2012-9-6,91,71,48,28,21,14,30,17,7,0.00,40.00,10,4,19,0.00
2012-9-7,91,73,53,38,31,26,40,23,11,0.00,40.00,12,5,25,0.00
2012-9-8,78,69,55,46,42,30,52,39,21,0.00,40.00,11,6,23,0.00
2012-9-9,83,66,46,43,39,32,77,42,17,0.00,40.00,8,4,19,0.00
2012-9-10,86,70,51,49,41,35,69,39,17,0.00,40.00,9,4,17,0.00
2012-9-11,80,68,57,49,45,41,58,45,25,0.00,40.00,10,4,26,0.00
2012-9-12,72,60,54,56,53,49,94,79,49,0.00,40.00,9,3,16,0.00
2012-9-13,75,59,46,52,46,35,97,69,24,0.00,40.00,8,3,16,0.01
2012-9-14,74,57,43,49,42,33,96,64,23,0.00,40.00,6,3,27,0.01
2012-9-15,80,61,41,41,36,27,90,49,15,0.00,40.00,9,4,18,0.00
2012-9-16,84,65,41,36,27,11,80,33,7,0.00,40.00,12,5,21,0.01
2012-9-17,82,62,42,32,23,17,59,27,10,0.00,40.00,11,4,35,0.01
2012-9-18,80,61,41,33,24,13,59,29,9,0.00,40.00,9,4,20,0.01
2012-9-19,83,60,37,27,18,6,59,26,6,0.00,40.00,9,4,18,0.00
2012-9-20,83,62,36,24,15,10,48,20,7,0.00,40.00,11,5,23,0.00
2012-9-21,82,60,36,23,15,8,50,22,6,0.00,40.00,6,3,15,0.00
2012-9-22,84,61,37,22,15,-100,48,22,7,0.00,40.00,9,4,19,0.00
2012-9-23,84,64,43,25,21,16,38,22,8,0.00,40.00,9,4,21,0.00
2012-9-24,74,62,48,50,34,25,92,37,23,0.00,40.00,11,4,45,0.41
2012-9-25,71,58,46,50,44,36,96,66,31,0.00,40.00,10,4,23,0.42
2012-9-26,72,59,48,48,42,35,93,59,27,0.00,40.00,7,4,25,2.43
2012-9-27,75,57,41,41,36,27,91,53,18,0.00,40.00,9,4,17,0.22
2012-9-28,76,57,36,38,32,25,86,47,15,0.00,40.00,8,3,16,0.03
2012-9-29,77,59,40,44,33,26,83,43,17,0.00,40.00,9,4,17,0.01
2012-9-30,80,62,39,36,28,16,77,34,10,0.00,40.00,10,4,19,0.03
2012-10-1,78,61,38,30,25,23,59,30,13,0.00,40.00,10,4,19,0.01
2012-10-2,80,61,36,31,24,19,63,30,11,0.00,40.00,11,5,22,0.04
2012-10-3,81,61,38,28,20,13,53,26,8,0.00,40.00,14,5,27,0.17
2012-10-4,78,59,37,26,20,15,49,25,9,0.00,40.00,13,5,25,0.09
2012-10-5,74,65,43,26,20,14,43,20,12,0.00,40.00,11,6,24,0.11
2012-10-6,72,61,45,19,12,5,28,16,8,0.00,40.00,12,6,24,0.10
2012-10-7,68,48,31,9,-1,-16,31,15,3,0.00,40.00,12,4,25,0.13
2012-10-8,73,52,25,20,8,-3,36,19,7,0.00,40.00,10,5,20,0.04
2012-10-9,73,52,31,24,18,15,51,30,13,0.00,40.00,12,5,23,0.05
2012-10-10,76,56,36,27,21,17,48,28,12,0.00,40.00,8,4,17,0.01
2012-10-11,76,55,36,40,25,20,53,35,15,0.00,40.00,10,3,39,0.72
2012-10-12,67,58,47,42,36,22,61,46,22,0.00,40.00,13,6,30,1.78
2012-10-13,59,46,30,35,31,25,85,58,36,0.00,40.00,13,6,29,0.06
2012-10-14,68,50,33,35,30,27,85,51,23,0.00,40.00,6,3,19,0.03
2012-10-15,72,51,29,32,25,18,82,44,15,0.00,40.00,8,4,17,0.03
2012-10-16,73,52,28,26,19,15,63,33,11,0.00,40.00,11,5,25,0.08
2012-10-17,68,56,45,31,8,-18,42,20,4,0.00,40.00,14,8,29,1.86
2012-10-18,71,54,28,7,2,-8,26,13,7,0.00,40.00,11,5,21,0.19
2012-10-19,72,47,25,15,9,5,42,24,10,0.00,40.00,10,4,17,0.03
2012-10-20,75,49,26,17,11,8,49,26,8,0.00,40.00,8,3,15,0.01
2012-10-21,70,50,30,27,18,8,50,30,18,0.00,40.00,8,3,16,0.01
2012-10-22,69,48,29,34,25,20,69,44,20,0.00,40.00,7,3,17,0.01
2012-10-23,73,51,32,31,23,20,68,40,15,0.00,40.00,7,4,18,0.02
2012-10-24,70,52,33,27,19,6,58,31,9,0.00,40.00,16,6,30,1.36
2012-10-25,54,40,28,18,10,3,58,32,14,0.00,40.00,11,5,22,0.35
2012-10-26,53,34,21,11,0,-17,56,29,5,0.00,40.00,8,4,15,0.01
2012-10-27,57,41,15,7,-2,-11,33,18,9,0.00,40.00,9,4,17,0.01
2012-10-28,64,45,24,17,8,-1,33,23,14,0.00,40.00,9,4,18,0.02
2012-10-29,68,46,24,19,12,7,55,30,11,0.00,40.00,10,4,19,0.02
2012-10-30,63,36,24,16,10,7,48,36,15,0.00,40.00,5,2,9,0.00
2012-10-31,67,52,32,15,12,10,39,23,12,0.00,40.00,4,2,11,0.01
2012-11-1,68,44,27,15,9,3,49,29,9,0.00,40.00,5,3,15,0.08
2012-11-2,62,43,28,10,7,3,37,25,12,0.00,40.00,5,2,9,0.02
2012-11-3,64,45,26,10,7,4,41,24,11,0.00,40.00,5,3,13,0.43
2012-11-4,63,40,25,12,8,4,45,29,13,0.00,40.00,6,3,12,0.11
2012-11-5,63,44,28,21,14,8,52,33,16,0.00,40.00,5,2,11,0.00
2012-11-6,66,43,27,20,16,12,62,39,14,0.00,40.00,5,3,10,0.46
2012-11-7,68,44,27,18,14,10,53,34,13,0.00,40.00,5,3,13,0.50
2012-11-8,65,44,28,23,13,7,46,31,12,0.00,40.00,4,2,11,0.01
2012-11-9,54,45,40,43,39,30,96,80,54,0.00,40.00,6,3,18,0.02
2012-11-10,45,33,17,35,22,7,95,66,33,0.00,40.00,9,4,22,0.10
2012-11-11,32,23,12,14,8,0,87,56,33,0.00,40.00,11,5,22,0.19
2012-11-12,41,22,8,13,7,2,77,56,25,0.00,40.00,3,2,10,0.03
2012-11-13,46,27,13,19,13,9,85,60,29,0.00,40.00,4,2,9,0.00
2012-11-14,53,31,16,20,14,-100,85,58,20,0.00,40.00,4,2,8,2.61
2012-11-15,53,33,19,18,15,12,80,52,20,0.00,40.00,4,2,9,0.01
2012-11-16,57,44,33,19,16,13,53,33,17,0.00,40.00,5,3,12,0.01
2012-11-17,59,42,30,25,20,16,65,44,26,0.00,40.00,5,2,11,0.09
2012-11-18,57,40,28,31,26,21,84,60,32,0.00,40.00,5,2,12,0.08
2012-11-19,55,37,23,27,23,19,86,60,30,0.00,40.00,4,2,10,0.03
2012-11-20,58,38,24,26,20,15,86,55,21,0.00,40.00,4,2,11,0.05
2012-11-21,61,38,24,18,15,12,72,45,15,0.00,40.00,4,2,10,0.03
2012-11-22,58,37,21,19,16,13,71,46,21,0.00,40.00,4,2,12,0.01
2012-11-23,58,36,22,20,18,15,78,52,22,0.00,40.00,4,2,9,0.02
2012-11-24,57,35,20,21,17,11,82,52,23,0.00,40.00,4,2,11,0.04
2012-11-25,58,35,18,19,13,9,77,47,17,0.00,40.00,5,2,12,0.10
2012-11-26,48,25,19,14,9,6,65,52,23,0.00,40.00,3,2,6,1.64
2012-11-27,56,32,16,12,9,6,69,42,15,0.00,40.00,4,3,9,1.64
2012-11-28,57,37,22,17,11,7,57,37,15,0.00,40.00,4,2,9,0.00
2012-11-29,55,36,23,24,19,14,78,53,28,0.00,40.00,7,3,15,0.03
2012-11-30,55,36,24,27,22,19,82,59,31,0.00,40.00,4,2,10,0.01
2012-12-1,56,37,23,25,21,17,78,54,30,0.00,40.00,4,2,11,0.01
2012-12-2,57,38,28,25,20,13,77,53,20,0.00,40.00,4,2,9,0.00
2012-12-3,55,41,26,32,25,16,79,55,37,0.00,40.00,8,3,16,0.14
2012-12-4,51,32,18,26,16,10,84,57,20,0.00,40.00,3,2,8,0.01
2012-12-5,56,35,22,22,17,15,74,52,25,0.00,40.00,4,2,9,0.00
2012-12-6,55,34,25,21,16,-100,78,53,26,0.00,40.00,3,1,9,11.02
2012-12-7,52,35,22,29,22,19,91,63,28,0.00,40.00,6,2,15,0.05
2012-12-8,49,26,17,25,18,10,88,72,36,0.00,40.00,4,1,9,0.02
2012-12-9,33,25,1,17,2,-22,61,40,12,0.00,40.00,8,3,21,0.04
2012-12-10,33,26,1,7,1,-20,56,34,20,0.00,40.00,5,3,13,0.03
2012-12-11,35,16,3,8,3,-3,78,58,29,0.00,40.00,3,1,8,0.07
2012-12-12,46,28,12,10,6,2,64,41,21,0.00,40.00,7,2,14,0.06
2012-12-13,51,36,21,15,9,5,50,33,17,0.00,40.00,5,3,10,0.02
2012-12-14,39,32,27,32,26,11,95,83,33,0.00,40.00,5,2,12,0.01
2012-12-15,36,29,26,31,27,24,94,90,83,0.00,40.00,5,1,11,0.00
2012-12-16,30,23,14,24,19,11,93,86,76,0.00,40.00,5,2,13,0.00
2012-12-17,39,23,13,27,18,9,90,83,61,0.00,40.00,2,1,6,0.00
2012-12-18,39,30,25,30,26,22,94,86,71,0.00,40.00,3,2,7,0.00
2012-12-19,32,24,-5,31,19,-11,95,81,55,0.00,40.00,2,0,6,0.00
2012-12-20,29,9,-6,13,1,-12,84,69,46,0.00,40.00,3,0,5,0.00
2012-12-21,45,24,9,21,13,3,85,66,36,0.00,40.00,4,2,8,0.00
2012-12-22,46,26,13,22,14,9,85,65,25,0.00,40.00,4,1,8,0.00
2012-12-23,45,28,17,23,16,9,85,63,37,0.00,40.00,3,2,8,0.00
2012-12-24,35,28,21,26,21,16,93,75,47,0.00,40.00,4,2,9,0.00
2012-12-25,31,21,5,21,14,0,88,78,56,0.00,40.00,3,1,7,0.00
2012-12-26,36,24,14,19,14,11,89,67,38,0.00,40.00,5,2,14,0.00
2012-12-27,31,22,4,22,16,-1,92,80,57,0.00,40.00,4,2,10,0.00
2012-12-28,31,17,-1,12,6,-7,83,62,42,0.00,40.00,4,2,9,0.00
2012-12-29,33,19,0,8,3,-5,83,54,29,0.00,40.00,6,2,12,0.00
2012-12-30,40,29,17,24,11,2,84,47,31,0.00,40.00,5,3,12,0.00
2012-12-31,29,23,10,25,19,6,92,86,76,0.00,40.00,5,2,10,0.00
2013-1-1,27,14,-3,13,4,-100,84,70,49,0.00,40.00,4,1,9,0.00